Prosser, Nebraska
Current Conditions -  °F | °C
As of 11:53 AM on Monday 26 Jan 2015 (Local Time) from KHSI Reporting Station
Clear Clear  
Wind Chill: 15°   Ceiling: Unl
Heat Index: 15°   Visibility: 10mi
Dew Point:   Wind: 21mph
Humidity: 36%   Direction: 350°N
Pressure: 30.03"   Gusts: 31mph
Location:  40.8074°N, 98.6117°W
Report Text: KHSI 261753Z AUTO 35018G27KT 10SM CLR 15/00 A3003 RMK AO2 PK WND 34027/1748 SLP173 T01500000 10150 20011 53019
Loading
Personal Weather Stations






























Interactive Weather Map New forecast layout! Learn more

10-Day Weather Forecast

Advertisements
Track Severe Weather on mobile